METAR Data
IDs: Format: Raw Decoded Include TAF

Data at: 1708 UTC 20 Sep 2018

Region: TOP
KATL 201652Z 16005KT 10SM SCT055 33/19 A3015 RMK AO2 SLP197 MDT CU NE W T03280189

KBOS 201654Z 07010KT 10SM FEW020 BKN027 OVC032 18/13 A3028 RMK AO2 SLP252 BINOVC T01780133

KBWI 201654Z 11005KT 10SM SCT025 BKN050 26/20 A3018 RMK AO2 SLP219 T02560200

KCLE 201651Z 19010KT 10SM FEW045 SCT095 SCT250 29/21 A3009 RMK AO2 SLP185 T02940211 $

KCLT 201652Z 20006KT 9SM FEW045 FEW200 31/19 A3018 RMK AO2 SLP210 T03060194

KCVG 201652Z 24007KT 10SM FEW038 31/22 A3009 RMK AO2 SLP176 T03110222

KDCA 201652Z 13006KT 10SM FEW030 BKN045 27/21 A3018 RMK AO2 SLP221 T02720211

KDEN 201653Z 26005KT 10SM FEW020 SCT070 BKN200 21/14 A2994 RMK AO2 SLP070 T02060139

KDFW 201653Z 16013KT 10SM FEW030 FEW150 SCT230 BKN300 30/21 A2997 RMK AO2 SLP139 T03000211

KDTW 201653Z 12004KT 7SM FEW005 BKN050 OVC070 21/18 A3008 RMK AO2 RAE15 SLP184 P0000 T02110183

KEWR 201651Z VRB04KT 10SM FEW025 SCT035 OVC050 21/14 A3024 RMK AO2 SLP239 T02110139 $

KFLL 201653Z 09010KT 10SM FEW030 FEW150 FEW250 32/25 A3004 RMK AO2 SLP171 T03220250

KIAD 201701Z VRB05KT 10SM SCT027 BKN035 OVC050 27/21 A3018 RMK AO2 T02670206

KIAH 201653Z 14009KT 10SM TS SCT030 BKN045CB BKN150 BKN250 31/25 A2999 RMK AO2 TSB38 SLP153 OCNL LTGICCCCG SE TS SE MOV N T03060250

KJFK 201651Z 00000KT 10SM FEW029 BKN040 BKN055 22/15 A3025 RMK AO2 SLP242 T02220150

KLAS 201656Z 06004KT 10SM FEW120 28/M01 A2994 RMK AO2 SLP115 T02831011

KLAX 201653Z 12004KT 8SM FEW010 SCT015 22/16 A2986 RMK AO2 SLP110 T02170156

KLGA 201651Z 04007KT 10SM FEW025 OVC041 21/14 A3024 RMK AO2 SLP240 T02110139 $

KMCO 201653Z 08004KT 10SM SCT040 SCT250 32/23 A3006 RMK AO2 SLP179 T03170228

KMDW 201653Z 20007KT 8SM FEW030 BKN250 30/22 A2994 RMK AO2 SLP129 T03000222

KMEM 201654Z 14006KT 10SM FEW044 33/21 A3005 RMK AO2 SLP169 T03280211

KMIA 201653Z 00000KT 10SM SCT025 BKN040 BKN220 32/23 A3004 RMK AO2 LTG DSNT S SLP173 CB DSNT S T03170228

KMSP 201700Z 09011KT 10SM -RA OVC005 18/18 A2984 RMK AO2 P0000 T01780178

KORD 201651Z 17007KT 7SM BKN250 27/22 A2995 RMK AO2 SLP137 T02720217 $

KPDX 201653Z 13004KT 10SM FEW028 SCT250 16/10 A3019 RMK AO2 SLP222 T01560100

KPHL 201654Z 10005KT 10SM BKN028 OVC055 23/17 A3023 RMK AO2 SLP234 T02280167

KPHX 201651Z 22004KT 10SM FEW026 28/21 A2985 RMK AO2 SLP091 T02780211

KPIT 201651Z 19004KT 10SM SCT026 BKN038 26/19 A3015 RMK AO2 SLP209 T02610194

KSAN 201651Z 22005KT 6SM HZ OVC012 20/15 A2988 RMK AO2 SLP118 T02000150

KSEA 201653Z 18006KT 10SM FEW007 OVC010 13/11 A3017 RMK AO2 SLP224 T01330106

KSFO 201656Z 07004KT 10SM CLR 18/14 A2988 RMK AO2 SLP118 T01830139

KSLC 201654Z 34005KT 10SM FEW085 19/01 A3011 RMK AO2 SLP155 T01940006

KSTL 201651Z 20009KT 10SM CLR 33/21 A2999 RMK AO2 SLP140 T03330206

KTPA 201653Z 00000KT 10SM SCT045 34/23 A3005 RMK AO2 SLP176 T03440228